Terminal Aerodrome Forecast
Issued by NWS Wilmington, OH

Current Version | Previous Version | Text Only | Print | Product List | Glossary Off
Versions: 1 2 3 4 5 6 7 8 9 10 11 12 13 14 15 16 17 18 19 20 21 22 23 24

345
FTUS41 KILN 212038 AAA
TAFCVG
TAF AMD
KCVG 212038Z 2121/2224 16008KT P6SM SCT090 BKN200
     FM220300 15004KT P6SM FEW090 BKN200
     FM221200 07007KT P6SM VCSH BKN050 BKN100
     FM221500 07006KT 4SM -RA BR BKN015 OVC035
     FM221800 06007KT 2SM -RA OVC006=

USA.gov is the U.S. government's official web portal to all federal, state and local government web resources and services.